Aérodrome :
LOGIN :

S'inscrire | Disclaimer

   EN    FR    IT 

 










Légende :    VFR   VFR Marginal   IFR   IFR Intensif   IFR Très Intensif
Visi : 
Plafond : 
>= 8 km
>= 3000ft
5 à 8 km
1000 à 3000 ft
1500m à 5 km
500 à 1000 ft
800 à 1500m
200 à 500 ft
< 800m
< 200 ft
Symboles :   Orages  Brouillard  Fortes neiges  Fortes précipitations  Vent > 20 kt
SIGMETs :   Divers  Orages  Givrage  Turbulence  Onde Orograph.  Cendres Volcan.






- Altitude de l'aérodrome : 425 ft
- Code IATA : DTM


EDLW - Dortmund

DERNIER METAR :
  • 240250Z AUTO 04006KT 7000 // SCT003/// BKN017/// OVC020/// 01/00 Q0991

METARs EXPIRÉS :
  • 240220Z AUTO 06007KT 9999 // FEW004/// BKN011/// OVC020/// 01/00 Q0991
  • 240150Z AUTO 05007KT 9999 // FEW011/// BKN020/// OVC024/// 02/01 Q0991
  • 240120Z AUTO 06007KT 9999 // FEW006/// SCT010/// BKN018/// 02/01 Q0991
  • 240050Z AUTO 09008KT 9999 // BKN007/// BKN017/// BKN025/// 02/01 Q0991
  • 240020Z AUTO 04003KT 9999 // FEW011/// SCT030/// 02/01 Q0991

TAF TAF EDLW
Valide du 23 à 18h jusqu'au 24 à 18h UTC


231700Z 2318/2418 VRB03KT 9999 BKN030
TEMPO 2322/2401 RA BKN012
BECMG 2401/2404 28010KT 3000 -SN BKN004
TEMPO 2404/2410 2000 SN
PROB40
TEMPO 2405/2410 0500 +SN OVC000
BECMG 2410/2414 9999 BKN020



MET'MAP, la Météo Aéronautique d'un coup d'oeil ! - Copyright ORBIFLY Décembre 2007 - Disclaimer

ORBIFLY MET'MAP TEAM :

Programmation & Développement : Alexandra Zaïnal
Sur une idée originale de : Baudouin d'Aumeries
Assistance à la programmation : Marc-Olivier Méhu
Soutien technique & logistique : Manuel Goepfert

Contact : metmap@orbifly.com




SOURCES & CREDITS :

   NOAA